sensor_id;sensor_type;location;lat;lon;timestamp;pressure;altitude;pressure_sealevel;temperature;humidity
59531;BME280;45349;48.692;8.186;2023-12-07T00:01:21;146675.34;;;1.78;100.00
59531;BME280;45349;48.692;8.186;2023-12-07T00:03:48;146677.81;;;1.79;100.00
59531;BME280;45349;48.692;8.186;2023-12-07T00:06:14;146680.31;;;1.80;100.00
59531;BME280;45349;48.692;8.186;2023-12-07T00:08:41;146679.03;;;1.80;100.00
59531;BME280;45349;48.692;8.186;2023-12-07T00:11:09;146674.09;;;1.77;100.00
59531;BME280;45349;48.692;8.186;2023-12-07T00:13:35;146670.41;;;1.76;100.00
59531;BME280;45349;48.692;8.186;2023-12-07T00:16:03;146672.88;;;1.77;100.00
59531;BME280;45349;48.692;8.186;2023-12-07T00:18:30;146676.56;;;1.79;100.00
59531;BME280;45349;48.692;8.186;2023-12-07T00:20:56;146680.31;;;1.80;100.00
59531;BME280;45349;48.692;8.186;2023-12-07T00:23:23;146692.69;;;1.85;100.00
59531;BME280;45349;48.692;8.186;2023-12-07T00:25:50;146682.78;;;1.81;100.00
59531;BME280;45349;48.692;8.186;2023-12-07T00:28:18;146682.78;;;1.81;100.00
59531;BME280;45349;48.692;8.186;2023-12-07T00:30:44;146687.72;;;1.83;100.00
59531;BME280;45349;48.692;8.186;2023-12-07T00:33:11;146696.38;;;1.87;100.00
59531;BME280;45349;48.692;8.186;2023-12-07T00:35:37;146705.06;;;1.90;100.00
59531;BME280;45349;48.692;8.186;2023-12-07T00:38:05;146695.16;;;1.86;100.00
59531;BME280;45349;48.692;8.186;2023-12-07T00:40:33;146687.72;;;1.83;100.00
59531;BME280;45349;48.692;8.186;2023-12-07T00:43:02;146690.22;;;1.84;100.00
59531;BME280;45349;48.692;8.186;2023-12-07T00:45:30;146684.00;;;1.82;100.00
59531;BME280;45349;48.692;8.186;2023-12-07T00:47:57;146692.69;;;1.85;100.00
59531;BME280;45349;48.692;8.186;2023-12-07T00:50:23;146703.81;;;1.90;100.00
59531;BME280;45349;48.692;8.186;2023-12-07T00:52:50;146705.06;;;1.90;100.00
59531;BME280;45349;48.692;8.186;2023-12-07T00:55:16;146708.75;;;1.92;100.00
59531;BME280;45349;48.692;8.186;2023-12-07T00:57:43;146714.97;;;1.95;100.00
59531;BME280;45349;48.692;8.186;2023-12-07T01:00:10;146719.91;;;1.97;100.00
59531;BME280;45349;48.692;8.186;2023-12-07T01:02:38;146724.88;;;1.99;100.00
59531;BME280;45349;48.692;8.186;2023-12-07T01:05:05;146728.56;;;2.00;100.00
59531;BME280;45349;48.692;8.186;2023-12-07T01:07:34;146738.47;;;2.04;100.00
59531;BME280;45349;48.692;8.186;2023-12-07T01:10:00;146736.00;;;2.03;100.00
59531;BME280;45349;48.692;8.186;2023-12-07T01:12:27;146729.81;;;2.01;100.00
59531;BME280;45349;48.692;8.186;2023-12-07T01:14:53;146726.09;;;1.99;100.00
59531;BME280;45349;48.692;8.186;2023-12-07T01:17:20;146723.59;;;1.98;100.00
59531;BME280;45349;48.692;8.186;2023-12-07T01:19:48;146706.28;;;1.91;100.00
59531;BME280;45349;48.692;8.186;2023-12-07T01:22:14;146698.84;;;1.88;100.00
59531;BME280;45349;48.692;8.186;2023-12-07T01:24:41;146687.72;;;1.83;100.00
59531;BME280;45349;48.692;8.186;2023-12-07T01:27:09;146681.53;;;1.81;100.00
59531;BME280;45349;48.692;8.186;2023-12-07T01:29:35;146675.34;;;1.78;100.00
59531;BME280;45349;48.692;8.186;2023-12-07T01:32:02;146666.66;;;1.74;100.00
59531;BME280;45349;48.692;8.186;2023-12-07T01:34:29;146644.38;;;1.65;100.00
59531;BME280;45349;48.692;8.186;2023-12-07T01:36:57;146635.75;;;1.61;100.00
59531;BME280;45349;48.692;8.186;2023-12-07T01:39:23;146617.19;;;1.54;100.00
59531;BME280;45349;48.692;8.186;2023-12-07T01:41:51;146617.19;;;1.54;100.00
59531;BME280;45349;48.692;8.186;2023-12-07T01:44:18;146608.50;;;1.50;100.00
59531;BME280;45349;48.692;8.186;2023-12-07T01:46:45;146598.63;;;1.46;100.00
59531;BME280;45349;48.692;8.186;2023-12-07T01:49:12;146565.22;;;1.32;100.00
59531;BME280;45349;48.692;8.186;2023-12-07T01:51:39;146542.94;;;1.23;100.00
59531;BME280;45349;48.692;8.186;2023-12-07T01:54:06;146512.00;;;1.10;100.00
59531;BME280;45349;48.692;8.186;2023-12-07T01:56:34;146479.88;;;0.96;100.00
59531;BME280;45349;48.692;8.186;2023-12-07T01:59:01;146450.19;;;0.84;100.00
59531;BME280;45349;48.692;8.186;2023-12-07T02:01:28;146429.13;;;0.75;100.00
59531;BME280;45349;48.692;8.186;2023-12-07T02:03:55;146406.88;;;0.66;100.00
59531;BME280;45349;48.692;8.186;2023-12-07T02:06:22;146393.28;;;0.60;100.00
59531;BME280;45349;48.692;8.186;2023-12-07T02:08:48;146367.34;;;0.49;100.00
59531;BME280;45349;48.692;8.186;2023-12-07T02:11:16;146340.13;;;0.38;100.00
59531;BME280;45349;48.692;8.186;2023-12-07T02:13:43;146330.25;;;0.34;100.00
59531;BME280;45349;48.692;8.186;2023-12-07T02:16:15;146321.56;;;0.30;100.00
59531;BME280;45349;48.692;8.186;2023-12-07T02:18:49;146288.19;;;0.16;100.00
59531;BME280;45349;48.692;8.186;2023-12-07T02:21:21;146269.63;;;0.08;100.00
59531;BME280;45349;48.692;8.186;2023-12-07T02:23:52;146230.13;;;-0.08;100.00
59531;BME280;45349;48.692;8.186;2023-12-07T02:26:22;146220.22;;;-0.12;100.00
59531;BME280;45349;48.692;8.186;2023-12-07T02:28:55;146200.44;;;-0.21;100.00
59531;BME280;45349;48.692;8.186;2023-12-07T02:31:21;146175.75;;;-0.31;100.00
59531;BME280;45349;48.692;8.186;2023-12-07T02:33:48;146155.97;;;-0.39;100.00
59531;BME280;45349;48.692;8.186;2023-12-07T02:36:18;146141.13;;;-0.46;100.00
59531;BME280;45349;48.692;8.186;2023-12-07T02:38:47;146134.94;;;-0.48;100.00
59531;BME280;45349;48.692;8.186;2023-12-07T02:41:15;146097.91;;;-0.64;100.00
59531;BME280;45349;48.692;8.186;2023-12-07T02:43:42;146104.06;;;-0.61;100.00
59531;BME280;45349;48.692;8.186;2023-12-07T02:46:10;146075.66;;;-0.73;100.00
59531;BME280;45349;48.692;8.186;2023-12-07T02:48:36;146078.13;;;-0.72;100.00
59531;BME280;45349;48.692;8.186;2023-12-07T02:51:03;146071.94;;;-0.75;100.00
59531;BME280;45349;48.692;8.186;2023-12-07T02:53:30;146076.88;;;-0.72;100.00
59531;BME280;45349;48.692;8.186;2023-12-07T02:55:56;146065.78;;;-0.77;100.00
59531;BME280;45349;48.692;8.186;2023-12-07T02:58:23;146042.28;;;-0.87;100.00
59531;BME280;45349;48.692;8.186;2023-12-07T03:00:50;146031.19;;;-0.92;100.00
59531;BME280;45349;48.692;8.186;2023-12-07T03:03:18;146032.41;;;-0.91;100.00
59531;BME280;45349;48.692;8.186;2023-12-07T03:05:44;146025.00;;;-0.94;100.00
59531;BME280;45349;48.692;8.186;2023-12-07T03:08:11;146059.59;;;-0.80;100.00
59531;BME280;45349;48.692;8.186;2023-12-07T03:10:37;146046.00;;;-0.85;100.00
59531;BME280;45349;48.692;8.186;2023-12-07T03:13:04;146042.28;;;-0.87;100.00
59531;BME280;45349;48.692;8.186;2023-12-07T03:15:30;146017.56;;;-0.97;100.00
59531;BME280;45349;48.692;8.186;2023-12-07T03:17:57;146010.16;;;-1.00;100.00
59531;BME280;45349;48.692;8.186;2023-12-07T03:20:25;146012.63;;;-0.99;100.00
59531;BME280;45349;48.692;8.186;2023-12-07T03:22:51;146008.97;;;-1.01;100.00
59531;BME280;45349;48.692;8.186;2023-12-07T03:25:18;145985.50;;;-1.11;100.00
59531;BME280;45349;48.692;8.186;2023-12-07T03:27:45;145976.84;;;-1.14;100.00
59531;BME280;45349;48.692;8.186;2023-12-07T03:30:12;145958.34;;;-1.22;100.00
59531;BME280;45349;48.692;8.186;2023-12-07T03:32:39;145955.88;;;-1.23;100.00
59531;BME280;45349;48.692;8.186;2023-12-07T03:35:06;145943.53;;;-1.28;100.00
59531;BME280;45349;48.692;8.186;2023-12-07T03:37:34;145931.16;;;-1.34;100.00
59531;BME280;45349;48.692;8.186;2023-12-07T03:40:00;145931.16;;;-1.34;100.00
59531;BME280;45349;48.692;8.186;2023-12-07T03:42:29;145922.50;;;-1.37;100.00
59531;BME280;45349;48.692;8.186;2023-12-07T03:44:56;145908.94;;;-1.43;100.00
59531;BME280;45349;48.692;8.186;2023-12-07T03:47:22;145899.06;;;-1.47;100.00
59531;BME280;45349;48.692;8.186;2023-12-07T03:49:50;145897.81;;;-1.48;100.00
59531;BME280;45349;48.692;8.186;2023-12-07T03:52:17;145891.66;;;-1.50;100.00
59531;BME280;45349;48.692;8.186;2023-12-07T03:54:45;145902.75;;;-1.45;100.00
59531;BME280;45349;48.692;8.186;2023-12-07T03:57:12;145884.25;;;-1.53;100.00
59531;BME280;45349;48.692;8.186;2023-12-07T03:59:38;145882.97;;;-1.54;100.00
59531;BME280;45349;48.692;8.186;2023-12-07T04:02:05;145868.22;;;-1.60;100.00
59531;BME280;45349;48.692;8.186;2023-12-07T04:04:31;145855.88;;;-1.65;100.00
59531;BME280;45349;48.692;8.186;2023-12-07T04:06:58;145839.78;;;-1.72;100.00
59531;BME280;45349;48.692;8.186;2023-12-07T04:09:25;145857.09;;;-1.65;100.00
59531;BME280;45349;48.692;8.186;2023-12-07T04:11:53;145843.53;;;-1.70;100.00
59531;BME280;45349;48.692;8.186;2023-12-07T04:14:19;145849.66;;;-1.68;100.00
59531;BME280;45349;48.692;8.186;2023-12-07T04:16:46;145863.28;;;-1.62;100.00
59531;BME280;45349;48.692;8.186;2023-12-07T04:19:13;145844.72;;;-1.70;100.00
59531;BME280;45349;48.692;8.186;2023-12-07T04:21:39;145831.19;;;-1.75;100.00
59531;BME280;45349;48.692;8.186;2023-12-07T04:24:06;145820.03;;;-1.80;100.00
59531;BME280;45349;48.692;8.186;2023-12-07T04:26:32;145812.63;;;-1.83;100.00
59531;BME280;45349;48.692;8.186;2023-12-07T04:29:00;145822.50;;;-1.79;100.00
59531;BME280;45349;48.692;8.186;2023-12-07T04:31:27;145821.31;;;-1.80;100.00
59531;BME280;45349;48.692;8.186;2023-12-07T04:33:54;145834.84;;;-1.74;100.00
59531;BME280;45349;48.692;8.186;2023-12-07T04:36:20;145833.66;;;-1.74;100.00
59531;BME280;45349;48.692;8.186;2023-12-07T04:38:47;145844.72;;;-1.70;100.00
59531;BME280;45349;48.692;8.186;2023-12-07T04:41:13;145834.84;;;-1.74;100.00
59531;BME280;45349;48.692;8.186;2023-12-07T04:43:40;145836.13;;;-1.73;100.00
59531;BME280;45349;48.692;8.186;2023-12-07T04:46:08;145834.84;;;-1.74;100.00
59531;BME280;45349;48.692;8.186;2023-12-07T04:48:34;145833.66;;;-1.74;100.00
59531;BME280;45349;48.692;8.186;2023-12-07T04:51:01;145831.19;;;-1.75;100.00
59531;BME280;45349;48.692;8.186;2023-12-07T04:53:28;145818.84;;;-1.81;100.00
59531;BME280;45349;48.692;8.186;2023-12-07T04:55:54;145820.03;;;-1.80;100.00
59531;BME280;45349;48.692;8.186;2023-12-07T04:58:21;145818.84;;;-1.81;100.00
59531;BME280;45349;48.692;8.186;2023-12-07T05:00:48;145812.63;;;-1.83;100.00
59531;BME280;45349;48.692;8.186;2023-12-07T05:03:16;145812.63;;;-1.83;100.00
59531;BME280;45349;48.692;8.186;2023-12-07T05:05:42;145832.38;;;-1.75;100.00
59531;BME280;45349;48.692;8.186;2023-12-07T05:08:09;145839.78;;;-1.72;100.00
59531;BME280;45349;48.692;8.186;2023-12-07T05:10:35;145848.47;;;-1.68;100.00
59531;BME280;45349;48.692;8.186;2023-12-07T05:13:02;145863.28;;;-1.62;100.00
59531;BME280;45349;48.692;8.186;2023-12-07T05:15:28;145839.78;;;-1.72;100.00
59531;BME280;45349;48.692;8.186;2023-12-07T05:17:55;145824.97;;;-1.78;100.00
59531;BME280;45349;48.692;8.186;2023-12-07T05:20:23;145829.91;;;-1.76;100.00
59531;BME280;45349;48.692;8.186;2023-12-07T05:22:51;145858.34;;;-1.64;100.00
59531;BME280;45349;48.692;8.186;2023-12-07T05:25:18;145862.00;;;-1.63;100.00
59531;BME280;45349;48.692;8.186;2023-12-07T05:27:45;145863.28;;;-1.62;100.00
59531;BME280;45349;48.692;8.186;2023-12-07T05:30:12;145853.41;;;-1.66;100.00
59531;BME280;45349;48.692;8.186;2023-12-07T05:32:39;145876.84;;;-1.56;100.00
59531;BME280;45349;48.692;8.186;2023-12-07T05:35:06;145885.47;;;-1.53;100.00
59531;BME280;45349;48.692;8.186;2023-12-07T05:37:34;145920.03;;;-1.38;100.00
59531;BME280;45349;48.692;8.186;2023-12-07T05:40:01;145922.50;;;-1.37;100.00
59531;BME280;45349;48.692;8.186;2023-12-07T05:42:28;145906.47;;;-1.44;100.00
59531;BME280;45349;48.692;8.186;2023-12-07T05:44:54;145881.78;;;-1.54;100.00
59531;BME280;45349;48.692;8.186;2023-12-07T05:47:21;145864.50;;;-1.61;100.00
59531;BME280;45349;48.692;8.186;2023-12-07T05:49:48;145848.47;;;-1.68;100.00
59531;BME280;45349;48.692;8.186;2023-12-07T05:52:15;145837.31;;;-1.73;100.00
59531;BME280;45349;48.692;8.186;2023-12-07T05:54:43;145802.75;;;-1.87;100.00
59531;BME280;45349;48.692;8.186;2023-12-07T05:57:12;145796.63;;;-1.90;100.00
59531;BME280;45349;48.692;8.186;2023-12-07T05:59:39;145792.88;;;-1.91;100.00
59531;BME280;45349;48.692;8.186;2023-12-07T06:02:07;145807.69;;;-1.85;100.00
59531;BME280;45349;48.692;8.186;2023-12-07T06:04:33;145807.69;;;-1.85;100.00
59531;BME280;45349;48.692;8.186;2023-12-07T06:07:00;145806.50;;;-1.86;100.00
59531;BME280;45349;48.692;8.186;2023-12-07T06:09:27;145805.22;;;-1.86;100.00
59531;BME280;45349;48.692;8.186;2023-12-07T06:11:55;145802.75;;;-1.87;100.00
59531;BME280;45349;48.692;8.186;2023-12-07T06:14:22;145789.22;;;-1.93;100.00
59531;BME280;45349;48.692;8.186;2023-12-07T06:16:49;145790.41;;;-1.93;100.00
59531;BME280;45349;48.692;8.186;2023-12-07T06:19:15;145765.72;;;-2.03;100.00
59531;BME280;45349;48.692;8.186;2023-12-07T06:21:43;145733.69;;;-2.16;100.00
59531;BME280;45349;48.692;8.186;2023-12-07T06:24:10;145704.06;;;-2.29;100.00
59531;BME280;45349;48.692;8.186;2023-12-07T06:26:36;145709.00;;;-2.27;100.00
59531;BME280;45349;48.692;8.186;2023-12-07T06:29:04;145695.41;;;-2.32;100.00
59531;BME280;45349;48.692;8.186;2023-12-07T06:31:32;145685.53;;;-2.37;100.00
59531;BME280;45349;48.692;8.186;2023-12-07T06:33:59;145664.59;;;-2.45;100.00
59531;BME280;45349;48.692;8.186;2023-12-07T06:36:26;145697.88;;;-2.31;100.00
59531;BME280;45349;48.692;8.186;2023-12-07T06:38:53;145699.13;;;-2.31;100.00
59531;BME280;45349;48.692;8.186;2023-12-07T06:41:21;145691.72;;;-2.34;100.00
59531;BME280;45349;48.692;8.186;2023-12-07T06:43:47;145676.91;;;-2.40;100.00
59531;BME280;45349;48.692;8.186;2023-12-07T06:46:15;145676.91;;;-2.40;100.00
59531;BME280;45349;48.692;8.186;2023-12-07T06:48:42;145665.78;;;-2.45;100.00
59531;BME280;45349;48.692;8.186;2023-12-07T06:51:09;145665.78;;;-2.45;100.00
59531;BME280;45349;48.692;8.186;2023-12-07T06:53:35;145675.66;;;-2.41;100.00
59531;BME280;45349;48.692;8.186;2023-12-07T06:56:02;145655.94;;;-2.49;100.00
59531;BME280;45349;48.692;8.186;2023-12-07T06:58:29;145644.84;;;-2.54;100.00
59531;BME280;45349;48.692;8.186;2023-12-07T07:00:55;145631.25;;;-2.59;100.00
59531;BME280;45349;48.692;8.186;2023-12-07T07:03:24;145630.03;;;-2.60;100.00
59531;BME280;45349;48.692;8.186;2023-12-07T07:05:50;145630.03;;;-2.60;100.00
59531;BME280;45349;48.692;8.186;2023-12-07T07:08:17;145627.56;;;-2.61;100.00
59531;BME280;45349;48.692;8.186;2023-12-07T07:10:44;145634.97;;;-2.58;100.00
59531;BME280;45349;48.692;8.186;2023-12-07T07:13:11;145616.50;;;-2.65;100.00
59531;BME280;45349;48.692;8.186;2023-12-07T07:15:41;145607.84;;;-2.69;100.00
59531;BME280;45349;48.692;8.186;2023-12-07T07:18:08;145609.09;;;-2.69;100.00
59531;BME280;45349;48.692;8.186;2023-12-07T07:20:36;145620.16;;;-2.64;100.00
59531;BME280;45349;48.692;8.186;2023-12-07T07:23:03;145622.63;;;-2.63;100.00
59531;BME280;45349;48.692;8.186;2023-12-07T07:25:29;145628.78;;;-2.60;100.00
59531;BME280;45349;48.692;8.186;2023-12-07T07:27:56;145641.13;;;-2.55;100.00
59531;BME280;45349;48.692;8.186;2023-12-07T07:30:23;145642.38;;;-2.55;100.00
59531;BME280;45349;48.692;8.186;2023-12-07T07:32:50;145657.19;;;-2.48;100.00
59531;BME280;45349;48.692;8.186;2023-12-07T07:35:16;145668.25;;;-2.44;100.00
59531;BME280;45349;48.692;8.186;2023-12-07T07:37:44;145709.00;;;-2.27;100.00
59531;BME280;45349;48.692;8.186;2023-12-07T07:40:11;145727.50;;;-2.19;100.00
59531;BME280;45349;48.692;8.186;2023-12-07T07:42:38;145750.91;;;-2.09;100.00
59531;BME280;45349;48.692;8.186;2023-12-07T07:45:06;145773.13;;;-2.00;100.00
59531;BME280;45349;48.692;8.186;2023-12-07T07:47:33;145792.88;;;-1.91;100.00
59531;BME280;45349;48.692;8.186;2023-12-07T07:50:00;145822.50;;;-1.79;100.00
59531;BME280;45349;48.692;8.186;2023-12-07T07:52:31;145836.13;;;-1.73;100.00
59531;BME280;45349;48.692;8.186;2023-12-07T07:54:59;145852.16;;;-1.67;100.00
59531;BME280;45349;48.692;8.186;2023-12-07T07:57:26;145841.06;;;-1.71;100.00
59531;BME280;45349;48.692;8.186;2023-12-07T07:59:52;145853.41;;;-1.66;100.00
59531;BME280;45349;48.692;8.186;2023-12-07T08:02:20;145854.59;;;-1.66;100.00
59531;BME280;45349;48.692;8.186;2023-12-07T08:04:46;145878.03;;;-1.56;100.00
59531;BME280;45349;48.692;8.186;2023-12-07T08:07:13;145891.66;;;-1.50;100.00
59531;BME280;45349;48.692;8.186;2023-12-07T08:09:39;145910.16;;;-1.42;100.00
59531;BME280;45349;48.692;8.186;2023-12-07T08:12:08;145933.63;;;-1.32;100.00
59531;BME280;45349;48.692;8.186;2023-12-07T08:14:35;145939.78;;;-1.30;100.00
59531;BME280;45349;48.692;8.186;2023-12-07T08:17:02;145947.19;;;-1.27;100.00
59531;BME280;45349;48.692;8.186;2023-12-07T08:19:29;145963.28;;;-1.20;100.00
59531;BME280;45349;48.692;8.186;2023-12-07T08:21:56;145985.50;;;-1.11;100.00
59531;BME280;45349;48.692;8.186;2023-12-07T08:24:22;146000.28;;;-1.05;100.00
59531;BME280;45349;48.692;8.186;2023-12-07T08:26:50;146021.31;;;-0.96;100.00
59531;BME280;45349;48.692;8.186;2023-12-07T08:29:18;146028.72;;;-0.93;100.00
59531;BME280;45349;48.692;8.186;2023-12-07T08:31:45;146038.59;;;-0.88;100.00
59531;BME280;45349;48.692;8.186;2023-12-07T08:34:12;146055.91;;;-0.81;100.00
59531;BME280;45349;48.692;8.186;2023-12-07T08:36:39;146044.75;;;-0.86;100.00
59531;BME280;45349;48.692;8.186;2023-12-07T08:39:05;146043.53;;;-0.86;100.00
59531;BME280;45349;48.692;8.186;2023-12-07T08:41:35;146037.34;;;-0.89;100.00
59531;BME280;45349;48.692;8.186;2023-12-07T08:44:01;146048.50;;;-0.84;100.00
59531;BME280;45349;48.692;8.186;2023-12-07T08:46:29;146046.00;;;-0.85;100.00
59531;BME280;45349;48.692;8.186;2023-12-07T08:48:56;146038.59;;;-0.88;100.00
59531;BME280;45349;48.692;8.186;2023-12-07T08:51:23;146038.59;;;-0.88;100.00
59531;BME280;45349;48.692;8.186;2023-12-07T08:53:49;146046.00;;;-0.85;100.00
59531;BME280;45349;48.692;8.186;2023-12-07T08:56:17;146044.75;;;-0.86;100.00
59531;BME280;45349;48.692;8.186;2023-12-07T08:58:43;146046.00;;;-0.85;100.00
59531;BME280;45349;48.692;8.186;2023-12-07T09:01:10;146048.50;;;-0.84;100.00
59531;BME280;45349;48.692;8.186;2023-12-07T09:03:38;146049.69;;;-0.84;100.00
59531;BME280;45349;48.692;8.186;2023-12-07T09:06:07;146058.38;;;-0.80;100.00
59531;BME280;45349;48.692;8.186;2023-12-07T09:08:34;146079.34;;;-0.71;100.00
59531;BME280;45349;48.692;8.186;2023-12-07T09:11:00;146064.53;;;-0.78;100.00
59531;BME280;45349;48.692;8.186;2023-12-07T09:13:29;146057.09;;;-0.81;100.00
59531;BME280;45349;48.692;8.186;2023-12-07T09:15:55;146059.59;;;-0.80;100.00
59531;BME280;45349;48.692;8.186;2023-12-07T09:18:23;146068.25;;;-0.76;100.00
59531;BME280;45349;48.692;8.186;2023-12-07T09:20:51;146084.28;;;-0.69;100.00
59531;BME280;45349;48.692;8.186;2023-12-07T09:23:17;146109.00;;;-0.59;100.00
59531;BME280;45349;48.692;8.186;2023-12-07T09:25:45;146136.19;;;-0.48;100.00
59531;BME280;45349;48.692;8.186;2023-12-07T09:28:12;146157.19;;;-0.39;100.00
59531;BME280;45349;48.692;8.186;2023-12-07T09:30:38;146194.25;;;-0.23;100.00
59531;BME280;45349;48.692;8.186;2023-12-07T09:33:05;146230.13;;;-0.08;100.00
59531;BME280;45349;48.692;8.186;2023-12-07T09:35:32;146270.88;;;0.09;100.00
59531;BME280;45349;48.692;8.186;2023-12-07T09:38:01;146301.78;;;0.22;100.00
59531;BME280;45349;48.692;8.186;2023-12-07T09:40:27;146322.81;;;0.31;100.00
59531;BME280;45349;48.692;8.186;2023-12-07T09:42:54;146343.81;;;0.39;100.00
59531;BME280;45349;48.692;8.186;2023-12-07T09:45:21;146375.97;;;0.53;100.00
59531;BME280;45349;48.692;8.186;2023-12-07T09:47:50;146398.22;;;0.62;100.00
59531;BME280;45349;48.692;8.186;2023-12-07T09:50:18;146415.53;;;0.69;100.00
59531;BME280;45349;48.692;8.186;2023-12-07T09:52:47;146435.34;;;0.78;100.00
59531;BME280;45349;48.692;8.186;2023-12-07T09:55:17;146455.13;;;0.86;100.00
59531;BME280;45349;48.692;8.186;2023-12-07T09:57:44;146420.50;;;0.71;100.00
59531;BME280;45349;48.692;8.186;2023-12-07T10:00:12;146379.66;;;0.54;100.00
59531;BME280;45349;48.692;8.186;2023-12-07T10:02:40;146320.34;;;0.29;100.00
59531;BME280;45349;48.692;8.186;2023-12-07T10:05:09;146328.97;;;0.33;100.00
59531;BME280;45349;48.692;8.186;2023-12-07T10:07:40;146463.78;;;0.90;100.00
59531;BME280;45349;48.692;8.186;2023-12-07T10:10:08;146582.53;;;1.39;100.00
59531;BME280;45349;48.692;8.186;2023-12-07T10:12:45;146530.56;;;1.17;100.00
59531;BME280;45349;48.692;8.186;2023-12-07T10:18:29;146264.69;;;0.06;100.00
59531;BME280;45349;48.692;8.186;2023-12-07T10:20:56;146191.78;;;-0.24;100.00
59531;BME280;45349;48.692;8.186;2023-12-07T10:23:22;146210.34;;;-0.17;100.00
59531;BME280;45349;48.692;8.186;2023-12-07T10:25:50;146256.06;;;0.03;100.00
59531;BME280;45349;48.692;8.186;2023-12-07T10:28:18;146227.66;;;-0.09;100.00
59531;BME280;45349;48.692;8.186;2023-12-07T10:30:45;146148.53;;;-0.42;100.00
59531;BME280;45349;48.692;8.186;2023-12-07T10:33:12;146168.31;;;-0.34;100.00
59531;BME280;45349;48.692;8.186;2023-12-07T10:35:39;146131.25;;;-0.50;100.00
59531;BME280;45349;48.692;8.186;2023-12-07T10:38:06;146173.25;;;-0.32;100.00
59531;BME280;45349;48.692;8.186;2023-12-07T10:40:32;146216.50;;;-0.14;100.00
59531;BME280;45349;48.692;8.186;2023-12-07T10:43:04;146264.69;;;0.06;100.00
59531;BME280;45349;48.692;8.186;2023-12-07T10:45:33;146325.28;;;0.32;100.00
59531;BME280;45349;48.692;8.186;2023-12-07T10:48:02;146396.97;;;0.62;100.00
59531;BME280;45349;48.692;8.186;2023-12-07T10:50:34;146393.28;;;0.60;100.00
59531;BME280;45349;48.692;8.186;2023-12-07T10:53:10;146418.03;;;0.70;100.00
59531;BME280;45349;48.692;8.186;2023-12-07T10:55:42;146484.81;;;0.98;100.00
59531;BME280;45349;48.692;8.186;2023-12-07T10:58:11;146477.41;;;0.95;100.00
59531;BME280;45349;48.692;8.186;2023-12-07T11:00:42;146465.03;;;0.90;100.00
59531;BME280;45349;48.692;8.186;2023-12-07T11:03:14;146504.56;;;1.07;100.00
59531;BME280;45349;48.692;8.186;2023-12-07T11:05:42;146453.88;;;0.85;100.00
59531;BME280;45349;48.692;8.186;2023-12-07T11:08:15;146462.56;;;0.89;100.00
59531;BME280;45349;48.692;8.186;2023-12-07T11:10:47;146463.78;;;0.90;100.00
59531;BME280;45349;48.692;8.186;2023-12-07T11:13:18;146441.50;;;0.80;100.00
59531;BME280;45349;48.692;8.186;2023-12-07T11:15:48;146445.22;;;0.82;100.00
59531;BME280;45349;48.692;8.186;2023-12-07T11:18:14;146437.81;;;0.79;100.00
59531;BME280;45349;48.692;8.186;2023-12-07T11:20:42;146439.03;;;0.79;100.00
59531;BME280;45349;48.692;8.186;2023-12-07T11:23:10;146465.03;;;0.90;100.00
59531;BME280;45349;48.692;8.186;2023-12-07T11:25:37;146490.97;;;1.01;100.00
59531;BME280;45349;48.692;8.186;2023-12-07T11:28:05;146443.97;;;0.81;100.00
59531;BME280;45349;48.692;8.186;2023-12-07T11:30:34;146465.03;;;0.90;100.00
59531;BME280;45349;48.692;8.186;2023-12-07T11:33:03;146431.59;;;0.76;100.00
59531;BME280;45349;48.692;8.186;2023-12-07T11:35:31;146451.41;;;0.84;100.00
59531;BME280;45349;48.692;8.186;2023-12-07T11:38:02;146421.72;;;0.72;100.00
59531;BME280;45349;48.692;8.186;2023-12-07T11:40:29;146445.22;;;0.82;100.00
59531;BME280;45349;48.692;8.186;2023-12-07T11:42:56;146373.50;;;0.52;100.00
59531;BME280;45349;48.692;8.186;2023-12-07T11:45:39;146343.81;;;0.39;100.00
59531;BME280;45349;48.692;8.186;2023-12-07T11:48:08;146306.72;;;0.24;100.00
59531;BME280;45349;48.692;8.186;2023-12-07T11:50:35;146317.88;;;0.28;100.00
59531;BME280;45349;48.692;8.186;2023-12-07T11:53:02;146342.59;;;0.39;100.00
59531;BME280;45349;48.692;8.186;2023-12-07T11:55:31;146371.03;;;0.51;100.00
59531;BME280;45349;48.692;8.186;2023-12-07T11:57:58;146424.19;;;0.73;100.00
59531;BME280;45349;48.692;8.186;2023-12-07T12:00:25;146435.34;;;0.78;100.00
59531;BME280;45349;48.692;8.186;2023-12-07T12:02:52;146481.09;;;0.97;100.00
59531;BME280;45349;48.692;8.186;2023-12-07T12:05:20;146469.97;;;0.92;100.00
59531;BME280;45349;48.692;8.186;2023-12-07T12:07:46;146458.81;;;0.87;100.00
59531;BME280;45349;48.692;8.186;2023-12-07T12:10:13;146477.41;;;0.95;100.00
59531;BME280;45349;48.692;8.186;2023-12-07T12:12:40;146494.72;;;1.02;100.00
59531;BME280;45349;48.692;8.186;2023-12-07T12:15:07;146535.53;;;1.20;100.00
59531;BME280;45349;48.692;8.186;2023-12-07T12:17:35;146509.53;;;1.09;100.00
59531;BME280;45349;48.692;8.186;2023-12-07T12:20:02;146514.47;;;1.11;100.00
59531;BME280;45349;48.692;8.186;2023-12-07T12:22:31;146534.25;;;1.19;100.00
59531;BME280;45349;48.692;8.186;2023-12-07T12:24:57;146479.88;;;0.96;100.00
59531;BME280;45349;48.692;8.186;2023-12-07T12:27:24;146408.13;;;0.66;100.00
59531;BME280;45349;48.692;8.186;2023-12-07T12:29:52;146406.88;;;0.66;100.00
59531;BME280;45349;48.692;8.186;2023-12-07T12:32:19;146439.03;;;0.79;100.00
59531;BME280;45349;48.692;8.186;2023-12-07T12:34:50;146400.72;;;0.63;100.00
59531;BME280;45349;48.692;8.186;2023-12-07T12:37:17;146296.84;;;0.20;100.00
59531;BME280;45349;48.692;8.186;2023-12-07T12:39:45;146319.09;;;0.29;100.00
59531;BME280;45349;48.692;8.186;2023-12-07T12:42:12;146361.13;;;0.47;100.00
59531;BME280;45349;48.692;8.186;2023-12-07T12:44:38;146337.66;;;0.37;100.00
59531;BME280;45349;48.692;8.186;2023-12-07T12:47:05;146331.44;;;0.34;100.00